Time;durP1;ratioP1;P1;durP2;ratioP2;P2;SDS_P1;SDS_P2;PMS_P1;PMS_P2;Temp;Humidity;BMP_temperature;BMP_pressure;BME280_temperature;BME280_humidity;BME280_pressure;Samples;Min_cycle;Max_cycle;Signal;HPM_P1;HPM_P2
2023/10/05 00:04:39;;;;;;;1.47;1.37;;;23.00;45.50;;;;;;5014466;28;20233;-58
2023/10/05 00:07:16;;;;;;;2.00;1.20;;;23.00;45.50;;;;;;5015157;28;20461;-59
2023/10/05 00:09:43;;;;;;;1.33;1.23;;;23.00;45.60;;;;;;5014208;28;20460;-61
2023/10/05 00:12:15;;;;;;;1.57;1.30;;;23.00;45.60;;;;;;5015637;28;20496;-58
2023/10/05 00:14:41;;;;;;;1.20;1.10;;;23.00;45.60;;;;;;5016186;28;20457;-61
2023/10/05 00:17:08;;;;;;;1.50;1.40;;;23.00;45.50;;;;;;5016436;28;20453;-60
2023/10/05 00:19:39;;;;;;;1.43;1.33;;;23.00;45.50;;;;;;5016116;28;20211;-57
2023/10/05 00:22:05;;;;;;;1.60;1.50;;;23.00;45.60;;;;;;5017297;28;20449;-57
2023/10/05 00:24:37;;;;;;;1.20;1.10;;;23.00;45.60;;;;;;5015874;28;20484;-57
2023/10/05 00:27:09;;;;;;;1.43;1.33;;;23.00;45.50;;;;;;5017292;28;20237;-57
2023/10/05 00:29:41;;;;;;;1.47;1.37;;;23.00;45.60;;;;;;5015659;28;20453;-58
2023/10/05 00:32:13;;;;;;;1.37;1.27;;;23.00;45.60;;;;;;5011197;28;20482;-58
2023/10/05 00:34:40;;;;;;;1.60;1.50;;;23.00;45.60;;;;;;5015831;28;20451;-58
2023/10/05 00:37:06;;;;;;;1.60;1.50;;;23.00;45.50;;;;;;5015817;28;20453;-57
2023/10/05 00:39:32;;;;;;;1.80;1.33;;;23.00;45.50;;;;;;5009538;28;23480;-58
2023/10/05 00:44:30;;;;;;;1.63;1.53;;;23.00;45.50;;;;;;5015073;28;20242;-60
2023/10/05 00:47:00;;;;;;;1.40;1.30;;;23.00;45.50;;;;;;5004971;28;21086;-60
2023/10/05 00:49:30;;;;;;;1.80;1.20;;;23.00;45.50;;;;;;4995666;28;21214;-58
2023/10/05 00:54:33;;;;;;;1.47;1.37;;;23.00;45.50;;;;;;4996494;28;20559;-59
2023/10/05 00:57:01;;;;;;;1.47;1.30;;;23.00;45.50;;;;;;4996181;28;20492;-57
2023/10/05 00:59:31;;;;;;;1.33;1.23;;;23.00;45.60;;;;;;5004578;28;20444;-60
2023/10/05 01:04:28;;;;;;;1.57;1.47;;;23.00;45.60;;;;;;5016090;28;20456;-59
2023/10/05 01:07:07;;;;;;;1.30;1.20;;;23.00;45.50;;;;;;5014199;28;20844;-60
2023/10/05 01:09:53;;;;;;;1.17;1.07;;;23.00;45.50;;;;;;5012155;28;20464;-58
2023/10/05 01:14:58;;;;;;;1.40;1.30;;;23.00;45.50;;;;;;5014400;28;20497;-58
2023/10/05 01:17:28;;;;;;;1.33;1.23;;;23.00;45.50;;;;;;5016912;28;20449;-57
2023/10/05 01:19:58;;;;;;;1.43;1.33;;;23.00;45.50;;;;;;5015475;28;20463;-58
2023/10/05 01:22:39;;;;;;;1.50;1.40;;;23.00;45.60;;;;;;5014237;28;20445;-58
2023/10/05 01:25:06;;;;;;;1.30;1.20;;;23.00;45.50;;;;;;5016067;28;20456;-60
2023/10/05 01:27:32;;;;;;;1.30;1.20;;;23.00;45.60;;;;;;5016830;28;20472;-58
2023/10/05 01:29:58;;;;;;;1.40;1.30;;;23.00;45.50;;;;;;5016358;28;20457;-59
2023/10/05 01:32:24;;;;;;;1.40;1.30;;;23.00;45.60;;;;;;5006809;28;20515;-61
2023/10/05 01:34:52;;;;;;;1.23;1.13;;;23.00;45.50;;;;;;5008331;28;21218;-57
2023/10/05 01:37:22;;;;;;;1.50;1.40;;;23.00;45.60;;;;;;5013475;28;20449;-60
2023/10/05 01:39:51;;;;;;;1.27;1.17;;;23.00;45.60;;;;;;5013134;28;21025;-59
2023/10/05 01:42:17;;;;;;;1.30;1.20;;;23.00;46.30;;;;;;5014147;28;20504;-60
2023/10/05 01:44:49;;;;;;;1.50;1.40;;;23.00;45.60;;;;;;5016136;28;21150;-57
2023/10/05 01:47:15;;;;;;;1.50;1.30;;;23.00;45.70;;;;;;5005035;28;20227;-57
2023/10/05 01:49:41;;;;;;;1.70;1.60;;;23.00;45.60;;;;;;4999270;28;21079;-58
2023/10/05 01:52:08;;;;;;;1.40;1.30;;;23.00;45.60;;;;;;4995477;28;20463;-62
2023/10/05 01:54:34;;;;;;;1.60;1.50;;;23.00;45.60;;;;;;4992840;28;20227;-58
2023/10/05 01:57:04;;;;;;;1.30;1.20;;;23.00;45.60;;;;;;5009815;28;20464;-61
2023/10/05 01:59:33;;;;;;;1.40;1.23;;;23.00;45.60;;;;;;4995810;28;20463;-57
2023/10/05 02:02:04;;;;;;;1.20;1.10;;;23.00;45.60;;;;;;5010000;28;20483;-57
2023/10/05 02:04:31;;;;;;;1.30;1.20;;;23.00;45.60;;;;;;5014298;28;21275;-59
2023/10/05 02:06:56;;;;;;;1.30;1.20;;;23.00;45.60;;;;;;5011042;28;20457;-58
2023/10/05 02:09:22;;;;;;;1.50;1.40;;;23.00;45.60;;;;;;4994792;28;20454;-61
2023/10/05 02:11:48;;;;;;;1.43;1.33;;;23.00;45.60;;;;;;4993626;28;20231;-57
2023/10/05 02:14:17;;;;;;;1.40;1.30;;;23.00;45.60;;;;;;4991874;28;20235;-59
2023/10/05 02:16:49;;;;;;;1.40;1.30;;;23.00;45.60;;;;;;5009026;28;20453;-59
2023/10/05 02:19:14;;;;;;;1.20;1.10;;;23.00;45.70;;;;;;4994596;28;20807;-58
2023/10/05 02:21:40;;;;;;;1.30;1.13;;;23.00;46.40;;;;;;4992957;28;20499;-59
2023/10/05 02:24:16;;;;;;;1.47;1.37;;;23.00;45.60;;;;;;4994339;28;20227;-58
2023/10/05 02:26:54;;;;;;;1.30;1.20;;;23.00;45.60;;;;;;4996966;28;20230;-58
2023/10/05 02:29:21;;;;;;;1.17;1.07;;;23.00;45.60;;;;;;4996198;28;20453;-59
2023/10/05 02:32:02;;;;;;;1.50;1.40;;;23.00;45.60;;;;;;4998711;28;20458;-58
2023/10/05 02:37:24;;;;;;;1.30;1.20;;;23.00;45.60;;;;;;5012552;28;20454;-57
2023/10/05 02:39:50;;;;;;;1.13;1.03;;;23.00;45.60;;;;;;5003277;28;20543;-59
2023/10/05 02:42:21;;;;;;;1.50;1.30;;;23.00;45.60;;;;;;5014669;28;20683;-59
2023/10/05 02:44:46;;;;;;;1.47;1.37;;;23.00;45.60;;;;;;5011554;28;20219;-59
2023/10/05 02:47:16;;;;;;;1.53;1.43;;;23.00;45.60;;;;;;5011451;28;20463;-60
2023/10/05 02:49:47;;;;;;;1.27;1.17;;;23.00;45.60;;;;;;5009833;28;20732;-60
2023/10/05 02:52:16;;;;;;;1.33;1.20;;;23.00;45.60;;;;;;5009809;28;20452;-58
2023/10/05 02:54:47;;;;;;;1.50;1.40;;;23.00;45.60;;;;;;4995041;28;20461;-59
2023/10/05 02:57:14;;;;;;;1.53;1.43;;;23.00;45.60;;;;;;4993901;28;20454;-58
2023/10/05 02:59:40;;;;;;;1.23;1.13;;;22.90;45.60;;;;;;5001915;28;20449;-61
2023/10/05 03:02:14;;;;;;;1.20;1.10;;;23.00;45.60;;;;;;5003623;28;20462;-58
2023/10/05 03:04:57;;;;;;;1.30;1.20;;;23.00;45.70;;;;;;4999413;28;20452;-59
2023/10/05 03:07:26;;;;;;;1.30;1.20;;;23.00;45.60;;;;;;5018407;28;20477;-58
2023/10/05 03:09:52;;;;;;;1.20;1.10;;;22.90;45.60;;;;;;5013340;28;20487;-60
2023/10/05 03:12:23;;;;;;;1.40;1.30;;;22.90;45.60;;;;;;4991798;28;20446;-57
2023/10/05 03:14:50;;;;;;;1.47;1.37;;;23.00;45.60;;;;;;4993489;28;20813;-59
2023/10/05 03:17:20;;;;;;;1.50;1.40;;;23.00;45.60;;;;;;4990908;28;20445;-58
2023/10/05 03:19:46;;;;;;;1.27;1.00;;;23.00;45.60;;;;;;5001544;28;20503;-59
2023/10/05 03:22:12;;;;;;;1.50;1.40;;;22.90;45.60;;;;;;5003139;28;20449;-59
2023/10/05 03:24:38;;;;;;;1.23;1.13;;;22.90;45.60;;;;;;4996763;28;20235;-58
2023/10/05 03:27:05;;;;;;;1.10;1.00;;;23.00;45.60;;;;;;4992889;28;20569;-58
2023/10/05 03:29:35;;;;;;;1.30;1.20;;;22.90;45.60;;;;;;5001894;28;20456;-58
2023/10/05 03:34:34;;;;;;;1.20;1.00;;;22.90;45.60;;;;;;5016330;28;20531;-59
2023/10/05 03:37:05;;;;;;;1.40;1.30;;;22.90;45.60;;;;;;5000383;28;20548;-59
2023/10/05 03:39:35;;;;;;;1.40;1.30;;;22.90;45.60;;;;;;4995928;28;21193;-58
2023/10/05 03:42:00;;;;;;;1.20;1.10;;;22.90;45.60;;;;;;4995520;28;20507;-58
2023/10/05 03:44:26;;;;;;;1.23;1.10;;;22.90;45.60;;;;;;4998996;28;20845;-60
2023/10/05 03:46:52;;;;;;;1.30;1.20;;;22.90;45.60;;;;;;5021426;28;20247;-61
2023/10/05 03:49:21;;;;;;;1.00;0.90;;;22.90;45.70;;;;;;5015959;28;20226;-57
2023/10/05 03:51:50;;;;;;;1.23;1.13;;;23.00;45.70;;;;;;5005358;28;20235;-58
2023/10/05 03:54:21;;;;;;;1.20;1.10;;;22.90;45.60;;;;;;5001023;28;20444;-58
2023/10/05 03:56:50;;;;;;;1.20;1.10;;;22.90;45.60;;;;;;4996892;28;20453;-57
2023/10/05 03:59:19;;;;;;;1.10;1.00;;;23.00;45.60;;;;;;4996091;28;20457;-58
2023/10/05 04:01:49;;;;;;;1.33;1.23;;;22.90;45.60;;;;;;5003370;28;20828;-59
2023/10/05 04:04:15;;;;;;;1.33;1.23;;;22.90;45.60;;;;;;5017059;28;20465;-57
2023/10/05 04:06:42;;;;;;;1.20;1.10;;;22.90;45.60;;;;;;5006403;28;20477;-58
2023/10/05 04:09:14;;;;;;;1.30;1.20;;;23.00;45.60;;;;;;4998881;28;20452;-59
2023/10/05 04:11:42;;;;;;;1.30;1.20;;;22.90;45.50;;;;;;4993872;28;20460;-60
2023/10/05 04:14:09;;;;;;;1.20;1.10;;;22.90;46.00;;;;;;4997932;28;20454;-57
2023/10/05 04:16:34;;;;;;;1.10;1.00;;;23.00;45.60;;;;;;5000839;28;20852;-59
2023/10/05 04:19:04;;;;;;;1.33;1.00;;;22.90;45.60;;;;;;4994797;28;21035;-60
2023/10/05 04:21:31;;;;;;;1.10;1.00;;;22.90;45.60;;;;;;4995799;28;20966;-61
2023/10/05 04:23:59;;;;;;;1.20;1.10;;;22.90;45.60;;;;;;4999735;28;20481;-58
2023/10/05 04:26:32;;;;;;;1.10;1.00;;;22.90;45.60;;;;;;4992587;28;20515;-60
2023/10/05 04:29:03;;;;;;;1.23;1.10;;;22.90;45.60;;;;;;5011631;28;20453;-60
2023/10/05 04:31:29;;;;;;;1.03;0.97;;;22.90;45.50;;;;;;5004244;28;20456;-58
2023/10/05 04:33:55;;;;;;;1.20;1.10;;;22.90;45.60;;;;;;5002874;28;20514;-60
2023/10/05 04:36:22;;;;;;;1.30;1.20;;;22.90;45.50;;;;;;4998054;28;20680;-58
2023/10/05 04:38:53;;;;;;;1.20;1.10;;;22.90;45.50;;;;;;4997256;28;20553;-59
2023/10/05 04:41:34;;;;;;;1.13;1.03;;;22.90;45.50;;;;;;5001571;28;20557;-59
2023/10/05 04:44:00;;;;;;;1.20;1.10;;;22.90;45.60;;;;;;4996672;28;20460;-62
2023/10/05 04:46:30;;;;;;;1.33;1.23;;;22.90;45.50;;;;;;4995150;28;21072;-60
2023/10/05 04:48:56;;;;;;;1.20;1.10;;;22.90;45.50;;;;;;4995001;28;20449;-60
2023/10/05 04:51:31;;;;;;;1.00;1.00;;;22.90;45.50;;;;;;5002587;28;20958;-58
2023/10/05 04:53:59;;;;;;;1.30;1.20;;;22.90;45.40;;;;;;5013156;28;20674;-64
2023/10/05 04:56:38;;;;;;;1.30;1.20;;;22.90;45.50;;;;;;5007449;28;20448;-57
2023/10/05 05:04:52;;;;;;;1.20;1.10;;;23.00;45.40;;;;;;4996123;28;20450;-61
2023/10/05 05:07:21;;;;;;;1.07;0.97;;;22.90;46.10;;;;;;4997852;28;21242;-59
2023/10/05 05:09:50;;;;;;;1.40;1.30;;;22.90;45.40;;;;;;5014290;28;21090;-58
2023/10/05 05:12:16;;;;;;;1.10;1.00;;;22.90;45.30;;;;;;5011230;28;20936;-58
2023/10/05 05:14:44;;;;;;;1.03;0.90;;;22.90;45.30;;;;;;5009690;28;20451;-58
2023/10/05 05:17:26;;;;;;;1.00;1.00;;;22.90;45.30;;;;;;4993039;28;20226;-62
2023/10/05 05:19:52;;;;;;;1.17;1.07;;;23.00;45.40;;;;;;5016554;28;20959;-62
2023/10/05 05:22:18;;;;;;;1.20;1.10;;;23.00;45.40;;;;;;4997021;28;20549;-60
2023/10/05 05:24:44;;;;;;;1.13;1.03;;;23.00;45.40;;;;;;4995589;28;20247;-58
2023/10/05 05:29:38;;;;;;;1.20;1.10;;;23.00;45.40;;;;;;4994453;28;20318;-63
2023/10/05 05:32:10;;;;;;;1.30;1.20;;;22.90;45.30;;;;;;4992131;28;20544;-57
2023/10/05 05:34:42;;;;;;;1.13;1.03;;;23.00;45.40;;;;;;4994569;28;20247;-59
2023/10/05 05:37:13;;;;;;;1.10;1.00;;;22.90;45.30;;;;;;5011007;28;20453;-59
2023/10/05 05:39:39;;;;;;;1.17;1.07;;;23.00;45.30;;;;;;5016419;28;20451;-59
2023/10/05 05:42:14;;;;;;;1.40;1.30;;;23.00;45.40;;;;;;5015605;28;20469;-59
2023/10/05 05:44:40;;;;;;;1.23;1.10;;;23.00;45.30;;;;;;4999692;28;20328;-58
2023/10/05 05:47:10;;;;;;;1.40;1.30;;;23.00;45.30;;;;;;4997562;28;21047;-59
2023/10/05 05:49:38;;;;;;;1.23;1.13;;;23.00;45.30;;;;;;4995806;28;20572;-59
2023/10/05 05:52:05;;;;;;;1.13;1.03;;;23.00;45.30;;;;;;4998443;28;21322;-58
2023/10/05 05:54:34;;;;;;;1.20;1.10;;;23.00;45.30;;;;;;4999778;28;20965;-57
2023/10/05 05:56:59;;;;;;;1.10;1.00;;;23.00;45.30;;;;;;4990778;28;20468;-59
2023/10/05 05:59:25;;;;;;;1.07;0.97;;;23.00;45.20;;;;;;4995648;28;20449;-62
2023/10/05 06:01:50;;;;;;;1.23;1.13;;;23.00;45.30;;;;;;4994464;28;20224;-58
2023/10/05 06:04:16;;;;;;;1.10;1.00;;;23.00;45.20;;;;;;4992930;28;20298;-58
2023/10/05 06:06:44;;;;;;;1.10;1.00;;;23.00;45.30;;;;;;4992137;28;20223;-59
2023/10/05 06:09:11;;;;;;;1.43;1.33;;;23.00;45.20;;;;;;4996454;28;20344;-61
2023/10/05 06:11:38;;;;;;;1.27;1.17;;;23.00;45.20;;;;;;5009762;28;20536;-62
2023/10/05 06:14:05;;;;;;;1.10;1.00;;;23.00;45.20;;;;;;5000121;28;20464;-59
2023/10/05 06:16:33;;;;;;;1.00;0.90;;;23.00;45.20;;;;;;4993498;28;20454;-59
2023/10/05 06:18:59;;;;;;;1.63;1.03;;;23.00;45.20;;;;;;4990876;28;20464;-60
2023/10/05 06:21:25;;;;;;;1.23;1.13;;;23.00;45.20;;;;;;4991751;28;20457;-61
2023/10/05 06:23:51;;;;;;;0.93;0.93;;;23.00;45.20;;;;;;5003356;28;20223;-58
2023/10/05 06:26:16;;;;;;;0.83;0.83;;;23.00;45.20;;;;;;5007651;28;20587;-58
2023/10/05 06:28:42;;;;;;;1.10;1.00;;;23.00;45.20;;;;;;5001294;28;20250;-59
2023/10/05 06:31:13;;;;;;;1.10;1.00;;;23.00;45.20;;;;;;5001922;28;20216;-59
2023/10/05 06:33:41;;;;;;;0.90;0.83;;;23.00;45.20;;;;;;4992169;28;20225;-58
2023/10/05 06:36:07;;;;;;;1.10;1.00;;;23.00;45.20;;;;;;4990535;28;20457;-60
2023/10/05 06:38:33;;;;;;;0.90;0.90;;;23.00;45.20;;;;;;4994787;28;20930;-57
2023/10/05 06:40:58;;;;;;;1.03;0.97;;;23.00;45.20;;;;;;5007995;28;20258;-58
2023/10/05 06:43:26;;;;;;;0.80;0.80;;;23.00;45.20;;;;;;5011476;28;20932;-59
2023/10/05 06:45:52;;;;;;;1.10;1.00;;;23.00;45.20;;;;;;4994521;28;20247;-57
2023/10/05 06:48:18;;;;;;;1.00;0.90;;;23.00;45.20;;;;;;4995923;28;20551;-60
2023/10/05 06:50:43;;;;;;;1.83;1.10;;;23.00;45.20;;;;;;4999936;28;20255;-60
2023/10/05 06:53:11;;;;;;;1.30;1.13;;;22.90;45.10;;;;;;4993730;28;20299;-58
2023/10/05 06:55:36;;;;;;;1.30;0.93;;;23.00;45.10;;;;;;4995234;28;20224;-58
2023/10/05 06:58:03;;;;;;;1.33;1.00;;;23.00;45.20;;;;;;5012906;28;20999;-58
2023/10/05 07:00:29;;;;;;;1.00;0.90;;;23.00;45.20;;;;;;5013210;28;20290;-59
2023/10/05 07:02:58;;;;;;;2.70;0.93;;;23.00;45.10;;;;;;4994840;28;20453;-61
2023/10/05 07:05:24;;;;;;;1.30;1.20;;;23.00;45.20;;;;;;4997139;28;20593;-60
2023/10/05 07:07:50;;;;;;;1.10;1.00;;;23.00;45.20;;;;;;4995296;28;20461;-58
2023/10/05 07:10:15;;;;;;;0.80;0.80;;;23.00;45.20;;;;;;4999225;28;20222;-58
2023/10/05 07:12:44;;;;;;;1.30;1.20;;;23.00;45.20;;;;;;5005653;28;20226;-59
2023/10/05 07:15:10;;;;;;;1.20;1.10;;;23.00;45.20;;;;;;4995175;28;20236;-60
2023/10/05 07:17:37;;;;;;;0.97;0.90;;;23.00;45.10;;;;;;4996520;28;20457;-58
2023/10/05 07:20:11;;;;;;;1.13;1.03;;;23.00;45.10;;;;;;4995888;28;20524;-57
2023/10/05 07:22:40;;;;;;;1.20;1.07;;;23.00;45.10;;;;;;4993761;28;20460;-59
2023/10/05 07:25:08;;;;;;;1.00;0.90;;;23.00;45.20;;;;;;4997806;28;20832;-59
2023/10/05 07:27:34;;;;;;;0.80;0.80;;;23.00;45.10;;;;;;4998844;28;20563;-57
2023/10/05 07:30:03;;;;;;;1.03;0.97;;;23.00;45.10;;;;;;4996593;28;20977;-60
2023/10/05 07:32:29;;;;;;;1.00;0.90;;;23.00;45.10;;;;;;4997321;28;21175;-58
2023/10/05 07:34:55;;;;;;;0.90;0.90;;;23.00;45.10;;;;;;4998314;28;20887;-60
2023/10/05 07:37:20;;;;;;;0.90;0.80;;;23.00;45.10;;;;;;4997025;28;20472;-60
2023/10/05 07:39:46;;;;;;;1.00;0.90;;;23.00;45.10;;;;;;4995683;28;20226;-58
2023/10/05 07:42:12;;;;;;;1.10;1.00;;;23.00;45.20;;;;;;5000248;28;20238;-58
2023/10/05 07:44:39;;;;;;;0.87;0.87;;;23.00;45.10;;;;;;5007380;28;20242;-58
2023/10/05 07:47:05;;;;;;;1.23;1.00;;;23.00;45.20;;;;;;5014294;28;20243;-59
2023/10/05 07:49:34;;;;;;;1.13;1.03;;;23.00;45.10;;;;;;5007855;28;20452;-60
2023/10/05 07:52:01;;;;;;;0.90;0.90;;;23.00;45.20;;;;;;5005411;28;20461;-59
2023/10/05 07:54:27;;;;;;;1.10;1.00;;;23.00;45.10;;;;;;4998857;28;20454;-64
2023/10/05 07:56:53;;;;;;;1.03;0.93;;;23.00;45.20;;;;;;4997955;28;20460;-61
2023/10/05 07:59:21;;;;;;;1.27;1.17;;;22.90;45.10;;;;;;5006100;28;20238;-62
2023/10/05 08:01:49;;;;;;;1.20;1.00;;;23.00;45.10;;;;;;5012580;28;20222;-58
2023/10/05 08:04:15;;;;;;;1.20;1.10;;;23.00;45.10;;;;;;4998245;28;20963;-58
2023/10/05 08:06:44;;;;;;;1.47;0.83;;;22.90;45.00;;;;;;4994418;28;20476;-60
2023/10/05 08:09:14;;;;;;;1.03;0.90;;;22.90;45.00;;;;;;4994050;28;20511;-60
2023/10/05 08:11:40;;;;;;;1.27;1.13;;;23.00;45.20;;;;;;5012104;28;20472;-60
2023/10/05 08:14:07;;;;;;;1.20;1.10;;;22.90;45.00;;;;;;4999163;28;20437;-59
2023/10/05 08:16:34;;;;;;;1.10;1.00;;;22.90;45.80;;;;;;4996842;28;20228;-57
2023/10/05 08:19:00;;;;;;;1.23;0.90;;;22.90;45.00;;;;;;4998908;28;20457;-58
2023/10/05 08:21:26;;;;;;;1.17;1.07;;;22.90;45.10;;;;;;4997818;28;20449;-60
2023/10/05 08:23:52;;;;;;;1.00;0.90;;;22.90;45.00;;;;;;5001008;28;20214;-58
2023/10/05 08:26:18;;;;;;;1.20;1.10;;;22.90;45.00;;;;;;5015687;28;20456;-57
2023/10/05 08:28:49;;;;;;;1.20;1.10;;;22.90;45.00;;;;;;5014527;28;20231;-64
2023/10/05 08:31:15;;;;;;;1.20;1.00;;;22.90;45.00;;;;;;5015958;28;20223;-59
2023/10/05 08:33:41;;;;;;;1.20;1.10;;;22.90;45.00;;;;;;5005747;28;20548;-58
2023/10/05 08:36:12;;;;;;;1.10;1.00;;;22.90;45.00;;;;;;4996546;28;20492;-58
2023/10/05 08:38:38;;;;;;;1.10;1.00;;;22.90;45.00;;;;;;5011476;28;20222;-60
2023/10/05 08:41:11;;;;;;;0.90;0.90;;;22.90;45.80;;;;;;5005916;28;21099;-59
2023/10/05 08:43:41;;;;;;;1.30;1.20;;;22.90;45.00;;;;;;5015502;28;20455;-58
2023/10/05 08:46:10;;;;;;;1.00;0.90;;;22.90;45.00;;;;;;5011710;28;20850;-60
2023/10/05 08:48:37;;;;;;;1.10;1.00;;;23.00;45.10;;;;;;4999071;28;20476;-58
2023/10/05 08:51:14;;;;;;;1.20;1.10;;;22.90;45.00;;;;;;5014060;28;20449;-58
2023/10/05 08:53:50;;;;;;;1.27;1.10;;;22.90;45.00;;;;;;5014797;28;20458;-58
2023/10/05 08:56:17;;;;;;;1.10;1.00;;;22.90;44.90;;;;;;5002360;28;20457;-60
2023/10/05 08:58:46;;;;;;;1.10;1.00;;;22.90;45.00;;;;;;4993410;28;20481;-60
2023/10/05 09:01:40;;;;;;;1.20;1.10;;;22.90;45.00;;;;;;4994634;28;20477;-60
2023/10/05 09:04:12;;;;;;;1.00;1.00;;;22.90;44.90;;;;;;5014628;28;20803;-60
2023/10/05 09:06:59;;;;;;;1.40;1.20;;;22.90;44.90;;;;;;5015437;28;20595;-57
2023/10/05 09:09:37;;;;;;;1.20;1.10;;;22.90;44.90;;;;;;5000146;28;20452;-60
2023/10/05 09:12:38;;;;;;;1.23;1.10;;;22.90;44.90;;;;;;5010998;28;20456;-65
2023/10/05 09:15:18;;;;;;;1.10;1.00;;;22.90;45.00;;;;;;5011818;28;20487;-58
2023/10/05 09:18:42;;;;;;;1.10;1.00;;;22.90;45.00;;;;;;5011942;28;20453;-58
2023/10/05 09:20:49;;;;;;;1.20;1.00;;;22.90;44.90;;;;;;4990805;28;20459;-61
2023/10/05 09:23:20;;;;;;;1.00;0.90;;;22.90;45.00;;;;;;4995247;28;20437;-59
2023/10/05 09:25:46;;;;;;;1.20;1.00;;;22.90;45.00;;;;;;5002112;28;20458;-59
2023/10/05 09:28:14;;;;;;;1.10;1.00;;;22.90;44.90;;;;;;4999386;28;20826;-60
2023/10/05 09:30:55;;;;;;;1.23;0.90;;;23.00;45.00;;;;;;4994768;28;20532;-57
2023/10/05 09:33:24;;;;;;;1.10;1.00;;;22.90;44.90;;;;;;5007274;28;21293;-58
2023/10/05 09:35:49;;;;;;;1.00;1.00;;;23.00;45.00;;;;;;5000919;28;20461;-58
2023/10/05 09:38:19;;;;;;;1.03;1.00;;;23.00;45.00;;;;;;4994555;28;20456;-60
2023/10/05 09:40:48;;;;;;;1.03;0.97;;;22.90;44.90;;;;;;4993522;28;20744;-59
2023/10/05 09:43:19;;;;;;;1.20;1.10;;;23.00;45.00;;;;;;4995198;28;20536;-57
2023/10/05 09:45:47;;;;;;;1.00;0.90;;;22.90;44.90;;;;;;4996829;28;20453;-58
2023/10/05 09:48:13;;;;;;;2.60;1.20;;;22.90;44.90;;;;;;5016689;28;20484;-61
2023/10/05 09:50:40;;;;;;;1.17;1.07;;;22.90;44.90;;;;;;5014859;28;20882;-58
2023/10/05 09:53:07;;;;;;;1.10;1.00;;;23.00;45.00;;;;;;5006915;28;20492;-61
2023/10/05 09:55:34;;;;;;;1.40;1.30;;;22.90;44.90;;;;;;5000502;28;20567;-58
2023/10/05 09:58:05;;;;;;;0.90;0.90;;;23.00;45.00;;;;;;4998645;28;21230;-60
2023/10/05 10:03:04;;;;;;;1.20;1.10;;;22.90;44.90;;;;;;4992699;28;20453;-58
2023/10/05 10:05:36;;;;;;;1.00;0.90;;;23.00;45.00;;;;;;5004898;28;20452;-60
2023/10/05 10:08:21;;;;;;;1.00;0.90;;;22.90;44.90;;;;;;4996095;28;20480;-58
2023/10/05 10:11:02;;;;;;;1.40;1.30;;;22.90;44.80;;;;;;4997054;28;21431;-58
2023/10/05 10:13:37;;;;;;;1.20;1.10;;;22.90;44.90;;;;;;4993597;28;20560;-60
2023/10/05 10:16:22;;;;;;;0.93;0.87;;;22.90;44.90;;;;;;4994303;28;21029;-58
2023/10/05 10:18:52;;;;;;;1.30;1.10;;;23.00;44.90;;;;;;4994213;28;20462;-58
2023/10/05 10:21:24;;;;;;;0.90;0.80;;;22.90;44.90;;;;;;5001460;28;20863;-58
2023/10/05 10:24:07;;;;;;;1.13;0.93;;;22.90;44.90;;;;;;4994878;28;20449;-57
2023/10/05 10:27:07;;;;;;;1.20;1.10;;;23.00;45.00;;;;;;5007096;28;20811;-57
2023/10/05 10:29:55;;;;;;;1.07;1.00;;;22.90;44.80;;;;;;5000098;28;20461;-60
2023/10/05 10:32:23;;;;;;;1.10;1.00;;;22.90;44.90;;;;;;5002075;28;20513;-60
2023/10/05 10:34:56;;;;;;;0.80;0.80;;;22.90;44.90;;;;;;4996845;28;20457;-58
2023/10/05 10:37:39;;;;;;;0.83;0.83;;;22.90;44.90;;;;;;4994058;28;20996;-59
2023/10/05 10:40:13;;;;;;;1.13;0.87;;;22.90;44.80;;;;;;4998686;28;21026;-57
2023/10/05 10:43:06;;;;;;;1.43;1.30;;;22.90;44.90;;;;;;4991948;28;20461;-57
2023/10/05 10:45:41;;;;;;;1.40;1.30;;;22.90;44.80;;;;;;4992814;28;20462;-60
2023/10/05 10:48:20;;;;;;;0.90;0.90;;;22.90;44.80;;;;;;5003649;28;20555;-59
2023/10/05 10:50:47;;;;;;;1.17;1.07;;;22.90;44.80;;;;;;5002827;28;20449;-59
2023/10/05 10:53:16;;;;;;;1.20;1.10;;;22.90;44.80;;;;;;4997554;28;21140;-58
2023/10/05 10:55:48;;;;;;;1.10;1.00;;;22.90;44.80;;;;;;5013452;28;21095;-58
2023/10/05 10:58:16;;;;;;;1.03;0.93;;;22.90;44.90;;;;;;5007677;28;20475;-58
2023/10/05 11:01:04;;;;;;;1.20;1.10;;;22.90;44.80;;;;;;5005090;28;20450;-58
2023/10/05 11:03:36;;;;;;;1.43;0.93;;;22.90;44.70;;;;;;5011915;28;20452;-58
2023/10/05 11:06:04;;;;;;;1.90;1.40;;;22.90;44.80;;;;;;4995056;28;20479;-58
2023/10/05 11:08:40;;;;;;;1.17;1.07;;;22.90;44.80;;;;;;4991878;28;20515;-59
2023/10/05 11:11:09;;;;;;;1.00;0.93;;;22.90;44.70;;;;;;4993199;28;20463;-57
2023/10/05 11:13:43;;;;;;;1.20;1.10;;;22.90;44.80;;;;;;4994014;28;20476;-57
2023/10/05 11:16:09;;;;;;;1.30;1.10;;;22.90;44.80;;;;;;4994934;28;21253;-58
2023/10/05 11:18:39;;;;;;;1.10;1.00;;;22.90;44.80;;;;;;4992292;28;21088;-58
2023/10/05 11:21:09;;;;;;;1.57;1.10;;;22.90;44.80;;;;;;4994192;28;20778;-57
2023/10/05 11:23:45;;;;;;;1.03;0.90;;;22.90;44.80;;;;;;4992110;28;20484;-57
2023/10/05 11:26:18;;;;;;;1.30;1.20;;;22.90;44.70;;;;;;4997888;28;20487;-57
2023/10/05 11:28:49;;;;;;;1.87;1.10;;;22.90;44.80;;;;;;5005114;28;22130;-57
2023/10/05 11:31:21;;;;;;;1.10;1.00;;;22.90;44.80;;;;;;4992086;28;20531;-58
2023/10/05 11:33:47;;;;;;;0.90;0.90;;;22.90;44.80;;;;;;4990154;28;20452;-61
2023/10/05 11:36:21;;;;;;;0.97;0.90;;;22.90;44.80;;;;;;4993728;28;20469;-57
2023/10/05 11:38:54;;;;;;;0.80;0.80;;;22.90;44.70;;;;;;4998762;28;20465;-59
2023/10/05 11:41:23;;;;;;;1.20;1.10;;;22.90;44.80;;;;;;5012759;28;20461;-58
2023/10/05 11:43:52;;;;;;;0.97;0.90;;;22.90;44.70;;;;;;4992717;28;20493;-57
2023/10/05 11:46:24;;;;;;;1.50;1.00;;;22.90;44.70;;;;;;4991651;28;20461;-58
2023/10/05 11:48:51;;;;;;;1.47;1.37;;;22.90;44.70;;;;;;5013791;28;20460;-59
2023/10/05 11:51:19;;;;;;;1.43;1.27;;;23.00;44.80;;;;;;5014482;28;20535;-57
2023/10/05 11:53:46;;;;;;;0.90;0.90;;;22.90;44.70;;;;;;5004933;28;20497;-59
2023/10/05 11:56:15;;;;;;;1.30;1.17;;;22.90;44.70;;;;;;4998784;28;20453;-57
2023/10/05 11:58:41;;;;;;;1.20;1.10;;;22.90;44.70;;;;;;4995907;28;20552;-61
2023/10/05 12:01:10;;;;;;;1.10;1.00;;;22.90;44.70;;;;;;4999234;28;20544;-57
2023/10/05 12:03:43;;;;;;;1.30;1.20;;;22.90;45.40;;;;;;4998791;28;20630;-58
2023/10/05 12:06:11;;;;;;;1.10;1.00;;;22.90;44.60;;;;;;4994389;28;20540;-58
2023/10/05 12:08:37;;;;;;;1.33;1.10;;;22.90;44.60;;;;;;4995636;28;21384;-57
2023/10/05 12:11:02;;;;;;;1.30;1.00;;;22.90;44.60;;;;;;4997653;28;20457;-58
2023/10/05 12:13:29;;;;;;;0.80;0.80;;;22.90;44.60;;;;;;4999630;28;20218;-58
2023/10/05 12:15:55;;;;;;;1.00;0.90;;;22.90;44.60;;;;;;5015747;28;20972;-61
2023/10/05 12:18:22;;;;;;;1.20;1.10;;;22.90;44.60;;;;;;5001473;28;20440;-57
2023/10/05 12:20:49;;;;;;;1.40;1.03;;;22.90;44.60;;;;;;5011987;28;20457;-58
2023/10/05 12:23:17;;;;;;;1.10;1.00;;;23.00;44.60;;;;;;4996786;28;21044;-58
2023/10/05 12:25:47;;;;;;;1.00;0.90;;;23.00;44.60;;;;;;4996945;28;20454;-57
2023/10/05 12:28:14;;;;;;;1.00;0.90;;;22.90;44.50;;;;;;4994353;28;20470;-57
2023/10/05 12:30:41;;;;;;;1.20;1.10;;;23.00;44.60;;;;;;4997303;28;20453;-58
2023/10/05 12:33:09;;;;;;;1.47;0.90;;;23.00;44.60;;;;;;4994476;28;20481;-57
2023/10/05 12:35:36;;;;;;;0.93;0.87;;;23.00;44.60;;;;;;4996880;28;20460;-58
2023/10/05 12:38:09;;;;;;;1.20;1.10;;;23.00;44.60;;;;;;5006028;28;20535;-57
2023/10/05 12:40:41;;;;;;;2.00;1.03;;;23.00;44.60;;;;;;5016282;28;20475;-58
2023/10/05 12:43:09;;;;;;;1.20;1.00;;;23.00;44.60;;;;;;5008808;28;20468;-57
2023/10/05 12:45:35;;;;;;;1.20;1.10;;;23.00;44.60;;;;;;4995704;28;20519;-57
2023/10/05 12:48:00;;;;;;;0.80;0.80;;;23.00;44.60;;;;;;4994484;28;20474;-57
2023/10/05 12:50:29;;;;;;;1.10;1.00;;;23.00;44.50;;;;;;4995791;28;20220;-58
2023/10/05 12:52:58;;;;;;;1.10;1.00;;;23.00;44.60;;;;;;5003100;28;20230;-59
2023/10/05 12:55:26;;;;;;;1.10;1.00;;;23.00;44.50;;;;;;4995371;28;20469;-59
2023/10/05 12:57:53;;;;;;;1.10;1.00;;;23.00;44.50;;;;;;4999040;28;20476;-59
2023/10/05 13:00:19;;;;;;;1.07;0.97;;;23.00;44.50;;;;;;5004527;28;20474;-59
2023/10/05 13:03:05;;;;;;;1.07;0.97;;;23.00;44.50;;;;;;5014634;28;20480;-59
2023/10/05 13:05:32;;;;;;;1.80;0.90;;;23.00;44.50;;;;;;5004763;28;20812;-59
2023/10/05 13:08:01;;;;;;;1.20;0.90;;;23.00;44.50;;;;;;5011734;28;20961;-59
2023/10/05 13:10:30;;;;;;;1.20;1.10;;;23.00;44.50;;;;;;4995406;28;20449;-59
2023/10/05 13:13:00;;;;;;;1.07;0.80;;;23.00;44.50;;;;;;5000918;28;20452;-59
2023/10/05 13:15:33;;;;;;;1.10;1.00;;;23.00;44.60;;;;;;4994727;28;20456;-58
2023/10/05 13:18:15;;;;;;;1.23;1.13;;;23.00;44.50;;;;;;5017979;28;20969;-57
2023/10/05 13:20:42;;;;;;;1.10;1.00;;;23.00;44.50;;;;;;5014098;28;20453;-60
2023/10/05 13:23:10;;;;;;;1.00;0.87;;;23.00;44.50;;;;;;5014862;28;20452;-58
2023/10/05 13:25:36;;;;;;;1.23;1.13;;;23.00;44.50;;;;;;5013383;28;20452;-58
2023/10/05 13:28:03;;;;;;;1.30;1.20;;;23.00;44.60;;;;;;5009775;28;20462;-58
2023/10/05 13:30:40;;;;;;;0.90;0.90;;;23.00;44.60;;;;;;4998548;28;20315;-58